Time;durP1;ratioP1;P1;durP2;ratioP2;P2;SDS_P1;SDS_P2;PMS_P1;PMS_P2;Temp;Humidity;BMP_temperature;BMP_pressure;BME280_temperature;BME280_humidity;BME280_pressure;Samples;Min_cycle;Max_cycle;Signal;HPM_P1;HPM_P2
2023/02/25 06:54:26;;;;;;;;;7.25;5.50;;;;;4.61;100.00;100959.56;4915554;23;49834;-64
2023/02/25 06:56:53;;;;;;;;;4.50;1.00;;;;;5.23;100.00;101104.78;4877640;28;51881;-64
2023/02/25 06:59:18;;;;;;;;;8.75;6.00;;;;;4.35;100.00;100910.66;4894561;28;49939;-64
2023/02/25 07:01:44;;;;;;;;;1.75;1.00;;;;;4.86;100.00;100995.47;4878386;29;49872;-64
2023/02/25 07:04:15;;;;;;;;;9.75;5.75;;;;;4.91;100.00;101025.16;4895321;28;50282;-64
2023/02/25 07:06:40;;;;;;;;;8.50;5.00;;;;;4.94;100.00;101034.84;4894986;28;50798;-64
2023/02/25 07:09:06;;;;;;;;;5.50;5.50;;;;;5.25;100.00;101056.28;4893959;29;49907;-64
2023/02/25 07:11:33;;;;;;;;;6.75;2.75;;;;;3.72;100.00;100794.22;4894515;29;49733;-64
2023/02/25 07:13:59;;;;;;;;;6.75;5.75;;;;;5.37;100.00;101075.06;4894832;28;49743;-64
2023/02/25 07:16:25;;;;;;;;;3.50;3.50;;;;;5.33;100.00;101080.06;4894536;28;50643;-64
2023/02/25 07:18:50;;;;;;;;;4.25;4.25;;;;;4.98;100.00;101010.75;4894517;28;49723;-64
2023/02/25 07:21:16;;;;;;;;;4.00;4.00;;;;;5.01;100.00;101029.97;4894664;28;49786;-65
2023/02/25 07:23:42;;;;;;;;;4.00;1.50;;;;;5.17;100.00;101061.13;4893235;28;50089;-64
2023/02/25 07:26:10;;;;;;;;;1.25;1.25;;;;;5.23;100.00;101080.47;4894318;28;49791;-64
2023/02/25 07:28:36;;;;;;;;;8.25;5.00;;;;;4.72;100.00;101004.28;4894562;28;49771;-64
2023/02/25 07:31:04;;;;;;;;;4.00;4.00;;;;;5.13;100.00;101076.53;4894247;28;49816;-64
2023/02/25 07:33:30;;;;;;;;;1.75;1.75;;;;;4.94;100.00;101046.16;4888870;29;49925;-64
2023/02/25 07:35:57;;;;;;;;;4.75;4.50;;;;;5.08;100.00;101085.81;4894195;29;50859;-64
2023/02/25 07:38:22;;;;;;;;;1.00;1.00;;;;;4.90;100.00;101072.81;4892345;28;49753;-64
2023/02/25 07:40:48;;;;;;;;;3.00;2.50;;;;;4.82;100.00;101051.63;4894665;28;49828;-64
2023/02/25 07:43:13;;;;;;;;;1.25;1.25;;;;;4.79;100.00;101064.50;4894738;29;50148;-64
2023/02/25 07:45:39;;;;;;;;;3.25;3.25;;;;;4.87;100.00;101063.16;4894379;28;50977;-65
2023/02/25 07:48:05;;;;;;;;;5.75;4.25;;;;;5.14;100.00;101096.53;4894538;28;50072;-65
2023/02/25 07:50:30;;;;;;;;;0.75;0.75;;;;;5.07;100.00;101071.03;4894166;28;49882;-64
2023/02/25 07:52:56;;;;;;;;;4.00;1.00;;;;;4.71;100.00;101007.72;4891539;28;49952;-65
2023/02/25 07:55:21;;;;;;;;;2.75;2.00;;;;;5.23;100.00;101099.56;4894075;28;50966;-65
2023/02/25 07:57:47;;;;;;;;;5.25;4.00;;;;;5.08;100.00;101073.69;4894207;29;49824;-64
2023/02/25 08:00:12;;;;;;;;;3.00;3.00;;;;;5.21;100.00;101111.63;4892561;28;49857;-65
2023/02/25 08:02:38;;;;;;;;;6.75;3.75;;;;;4.81;100.00;101015.13;4892436;28;50414;-65
2023/02/25 08:05:05;;;;;;;;;2.00;2.00;;;;;4.42;100.00;100934.41;4893498;28;50801;-65
2023/02/25 08:07:31;;;;;;;;;3.50;1.50;;;;;5.26;100.00;101096.22;4892130;29;49825;-65
2023/02/25 08:09:57;;;;;;;;;4.00;4.00;;;;;4.98;100.00;101044.56;4894106;28;49652;-68
2023/02/25 08:12:22;;;;;;;;;1.00;1.00;;;;;4.40;100.00;100961.16;4894244;28;49566;-66
2023/02/25 08:14:47;;;;;;;;;1.50;1.50;;;;;5.23;100.00;101063.13;4894034;28;50017;-65
2023/02/25 08:17:13;;;;;;;;;2.00;2.00;;;;;5.49;100.00;101079.06;4894060;28;49775;-66
2023/02/25 08:19:40;;;;;;;;;10.50;2.00;;;;;5.72;100.00;101107.06;4894144;29;50201;-66
2023/02/25 08:22:06;;;;;;;;;5.00;4.00;;;;;5.70;100.00;101098.28;4893613;28;49893;-65
2023/02/25 08:24:31;;;;;;;;;1.25;1.00;;;;;5.10;100.00;100990.50;4894031;29;50891;-66
2023/02/25 08:26:57;;;;;;;;;1.75;1.75;;;;;5.64;100.00;101078.06;4892263;29;49848;-66
2023/02/25 08:29:23;;;;;;;;;3.00;1.50;;;;;5.39;100.00;101055.19;4894016;28;49963;-65
2023/02/25 08:31:50;;;;;;;;;4.00;2.00;;;;;5.64;100.00;101078.06;4893942;29;49768;-66
2023/02/25 08:34:16;;;;;;;;;4.75;2.50;;;;;5.55;100.00;101035.97;4893814;28;50998;-66
2023/02/25 08:36:42;;;;;;;;;2.75;2.75;;;;;5.93;100.00;101091.53;4893307;28;49672;-65
2023/02/25 08:39:09;;;;;;;;;2.75;2.75;;;;;5.96;100.00;101097.75;4892223;29;49748;-65
2023/02/25 08:41:35;;;;;;;;;3.50;3.50;;;;;5.94;100.00;101091.59;4887852;28;50047;-66
2023/02/25 08:44:01;;;;;;;;;4.00;4.00;;;;;5.93;100.00;101074.19;4893450;28;49769;-65
2023/02/25 08:46:28;;;;;;;;;3.50;2.00;;;;;6.09;100.00;101099.22;4893500;29;49711;-65
2023/02/25 08:48:54;;;;;;;;;1.25;1.25;;;;;5.65;100.00;101013.84;4893803;28;50096;-65
2023/02/25 08:51:21;;;;;;;;;2.00;1.75;;;;;5.67;100.00;101017.38;4893505;28;49929;-65
2023/02/25 08:53:46;;;;;;;;;8.25;4.50;;;;;6.20;100.00;101092.75;4893004;28;51303;-65
2023/02/25 08:56:13;;;;;;;;;5.75;3.25;;;;;6.13;100.00;101088.09;4893483;28;49719;-65
2023/02/25 08:58:40;;;;;;;;;6.00;4.25;;;;;6.17;100.00;101074.34;4876821;28;49864;-64
2023/02/25 09:01:13;;;;;;;;;6.00;3.75;;;;;6.16;100.00;101043.91;4893756;29;49827;-67
2023/02/25 09:03:53;;;;;;;;;1.50;1.50;;;;;6.57;100.00;101078.69;4892365;29;51040;-72
2023/02/25 09:06:26;;;;;;;;;9.00;4.50;;;;;6.79;100.00;101077.84;4887125;28;50040;-66
2023/02/25 09:08:53;;;;;;;;;2.75;2.00;;;;;6.34;100.00;100995.97;4892686;28;49909;-64
2023/02/25 09:11:19;;;;;;;;;3.50;2.50;;;;;6.92;100.00;101087.06;4893421;28;49947;-64
2023/02/25 09:13:45;;;;;;;;;4.75;1.00;;;;;6.86;100.00;101077.28;4895179;28;49903;-65
2023/02/25 09:16:10;;;;;;;;;3.00;1.75;;;;;6.81;100.00;101066.63;4878240;29;49906;-65
2023/02/25 09:18:35;;;;;;;;;2.00;2.00;;;;;6.59;100.00;101067.47;4896627;28;49847;-68
2023/02/25 09:21:01;;;;;;;;;6.50;1.75;;;;;6.36;100.00;101021.28;4896589;28;49648;-65
2023/02/25 09:23:26;;;;;;;;;2.75;2.00;;;;;6.15;100.00;100981.28;4895928;28;50886;-65
2023/02/25 09:26:08;;;;;;;;;7.25;4.50;;;;;6.35;100.00;101037.75;4896189;28;49723;-74
2023/02/25 09:28:35;;;;;;;;;2.25;0.50;;;;;6.13;100.00;101004.69;4881298;28;49895;-64
2023/02/25 09:31:03;;;;;;;;;1.00;1.00;;;;;6.42;100.00;101041.53;4895828;28;49947;-65
2023/02/25 09:33:32;;;;;;;;;3.25;1.00;;;;;6.44;100.00;101055.50;4895231;29;49949;-64
2023/02/25 09:36:07;;;;;;;;;2.00;2.00;;;;;6.86;100.00;101106.00;4894903;28;49831;-65
2023/02/25 09:38:33;;;;;;;;;2.75;1.25;;;;;6.53;100.00;101061.09;4895270;28;49754;-64
2023/02/25 09:40:58;;;;;;;;;1.00;1.00;;;;;6.01;100.00;100965.97;4895113;28;49760;-61
2023/02/25 09:43:27;;;;;;;;;1.00;1.00;;;;;6.94;100.00;101121.94;4895991;28;51110;-61
2023/02/25 09:45:56;;;;;;;;;1.75;1.75;;;;;6.99;100.00;101103.03;4896340;28;49786;-61
2023/02/25 09:48:32;;;;;;;;;2.50;1.00;;;;;7.02;100.00;101077.03;4896383;28;49875;-61
2023/02/25 09:51:06;;;;;;;;;2.00;2.00;;;;;7.27;100.00;101106.75;4896380;28;50066;-61
2023/02/25 09:53:40;;;;;;;;;4.50;1.25;;;;;7.23;100.00;101115.28;4895514;28;49894;-61
2023/02/25 09:56:07;;;;;;;;;1.75;1.75;;;;;7.24;100.00;101102.31;4896064;28;49721;-61
2023/02/25 09:58:40;;;;;;;;;6.00;4.50;;;;;7.04;100.00;101056.22;4896253;28;49892;-60
2023/02/25 10:01:23;;;;;;;;;3.00;1.00;;;;;7.34;100.00;101088.78;4896285;28;49700;-61
2023/02/25 10:04:07;;;;;;;;;5.25;5.25;;;;;7.40;100.00;101083.78;4878693;28;52096;-61
2023/02/25 10:06:39;;;;;;;;;4.00;2.25;;;;;7.57;100.00;101102.72;4895940;28;49722;-61
2023/02/25 10:09:26;;;;;;;;;2.00;1.00;;;;;7.62;100.00;101098.53;4895639;29;50060;-62
2023/02/25 10:11:54;;;;;;;;;3.00;1.00;;;;;7.80;100.00;101087.00;4893630;29;49870;-61
2023/02/25 10:14:42;;;;;;;;;4.00;2.00;;;;;7.21;100.00;100960.28;4889491;28;51188;-60
2023/02/25 10:17:16;;;;;;;;;6.00;2.00;;;;;8.03;100.00;101096.59;4886967;29;49842;-67
2023/02/25 10:20:17;;;;;;;;;1.00;1.00;;;;;8.03;100.00;101092.25;4887959;28;49918;-67
2023/02/25 10:23:00;;;;;;;;;2.25;2.00;;;;;7.97;100.00;101099.88;4887531;29;49618;-60
2023/02/25 10:25:29;;;;;;;;;8.25;6.25;;;;;7.28;100.00;100988.41;4888488;28;51330;-62
2023/02/25 10:28:02;;;;;;;;;2.50;2.50;;;;;7.91;100.00;101097.03;4887767;29;49917;-62
2023/02/25 10:30:37;;;;;;;;;8.00;5.00;;;;;7.77;100.00;101085.19;4894694;28;49638;-62
2023/02/25 10:33:13;;;;;;;;;4.00;2.75;;;;;7.77;100.00;101098.25;4898050;28;49535;-69
2023/02/25 10:35:41;;;;;;;;;5.25;2.25;;;;;7.79;100.00;101087.84;4891671;28;51115;-66
2023/02/25 10:38:09;;;;;;;;;5.50;3.00;;;;;7.90;100.00;101090.00;4892595;28;49753;-69
2023/02/25 10:40:35;;;;;;;;;2.00;2.00;;;;;8.01;100.00;101087.81;4888065;29;49807;-68
2023/02/25 10:43:17;;;;;;;;;2.25;2.25;;;;;7.78;100.00;101020.72;4888900;28;49964;-71
2023/02/25 10:45:46;;;;;;;;;2.50;1.00;;;;;8.23;100.00;101085.13;4892024;28;49767;-64
2023/02/25 10:48:23;;;;;;;;;5.25;3.50;;;;;8.28;100.00;101062.63;4895296;28;49885;-62
2023/02/25 10:51:15;;;;;;;;;3.50;3.50;;;;;8.47;100.00;101094.69;4894822;28;49743;-69
2023/02/25 10:54:01;;;;;;;;;7.75;6.00;;;;;7.94;100.00;101005.66;4874468;29;49765;-63
2023/02/25 10:56:48;;;;;;;;;4.00;2.00;;;;;8.09;100.00;101054.97;4897664;28;49895;-65
2023/02/25 10:59:26;;;;;;;;;1.00;1.00;;;;;8.30;100.00;101084.50;4895168;28;49785;-64
2023/02/25 11:01:53;;;;;;;;;5.00;3.00;;;;;7.93;100.00;101016.94;4894737;28;49766;-61
2023/02/25 11:04:23;;;;;;;;;1.00;1.00;;;;;7.99;100.00;101024.09;4895190;28;49831;-62
2023/02/25 11:06:48;;;;;;;;;0.50;0.50;;;;;7.80;100.00;100985.97;4894528;28;50983;-61
2023/02/25 11:09:20;;;;;;;;;3.50;2.00;;;;;8.56;100.00;101087.16;4894870;29;50029;-61
2023/02/25 11:11:54;;;;;;;;;6.50;3.00;;;;;8.55;100.00;101069.66;4894871;29;49689;-61
2023/02/25 11:14:29;;;;;;;;;5.00;2.00;;;;;8.57;100.00;101057.53;4895024;28;50073;-61
2023/02/25 11:17:10;;;;;;;;;2.00;2.00;;;;;8.61;100.00;101041.09;4889067;28;49908;-60
2023/02/25 11:19:39;;;;;;;;;11.00;7.25;;;;;8.72;100.00;101047.56;4894734;28;49654;-61
2023/02/25 11:22:17;;;;;;;;;2.00;1.00;;;;;8.42;99.55;101015.16;4894523;29;50285;-61
2023/02/25 11:24:45;;;;;;;;;24.75;19.50;;;;;8.66;99.93;101046.47;4894801;28;49749;-61
2023/02/25 11:27:29;;;;;;;;;830.50;713.50;;;;;8.72;95.12;101051.91;4894176;29;50532;-61
2023/02/25 11:30:07;;;;;;;;;123.75;114.00;;;;;8.63;93.20;101012.38;4894763;29;49749;-61
2023/02/25 11:32:33;;;;;;;;;325.67;268.67;;;;;8.59;91.37;101041.06;4894276;28;50122;-61
2023/02/25 11:35:07;;;;;;;;;315.25;268.25;;;;;8.71;94.27;101044.91;4878111;29;50033;-61
2023/02/25 11:37:45;;;;;;;;;894.60;702.60;;;;;8.75;85.91;101057.25;4888128;29;50606;-60
2023/02/25 11:40:24;;;;;;;;;1972.00;1350.50;;;;;8.28;81.78;100955.38;4893785;28;49737;-61
2023/02/25 11:43:05;;;;;;;;;191.50;173.25;;;;;8.97;84.80;101040.50;4894636;29;50054;-61
2023/02/25 11:45:37;;;;;;;;;121.50;98.25;;;;;8.94;80.65;101056.13;4894598;29;49679;-60
2023/02/25 11:48:15;;;;;;;;;61.25;50.00;;;;;8.39;82.77;100920.88;4894143;28;49857;-60
2023/02/25 11:50:56;;;;;;;;;3.00;2.00;;;;;9.07;77.88;101046.09;4894364;29;49821;-61
2023/02/25 11:53:36;;;;;;;;;74.00;56.25;;;;;9.16;77.56;101050.69;4893681;28;49874;-61
2023/02/25 11:56:23;;;;;;;;;841.50;671.00;;;;;9.20;78.70;101051.72;4894157;29;49645;-61
2023/02/25 11:59:13;;;;;;;;;191.75;133.25;;;;;9.03;73.32;101038.97;4894042;29;49708;-61
2023/02/25 12:01:56;;;;;;;;;96.25;81.00;;;;;8.88;71.70;101025.41;4894189;28;49872;-61
2023/02/25 12:04:27;;;;;;;;;29.25;25.75;;;;;8.94;73.87;101030.81;4894142;28;49804;-65
2023/02/25 12:06:58;;;;;;;;;96.67;77.33;;;;;8.99;73.10;101037.09;4893828;29;49963;-70
2023/02/25 12:09:49;;;;;;;;;68.50;53.50;;;;;8.78;71.78;100989.28;4893750;28;49956;-70
2023/02/25 12:12:29;;;;;;;;;17.50;12.00;;;;;9.23;69.02;101026.47;4893933;28;49979;-67
2023/02/25 12:15:16;;;;;;;;;16.75;13.75;;;;;9.41;65.18;101016.56;4894126;28;49896;-68
2023/02/25 12:17:41;;;;;;;;;56.25;45.25;;;;;9.48;65.35;101006.25;4894256;29;49941;-64
2023/02/25 12:20:25;;;;;;;;;7.00;4.25;;;;;9.54;65.97;101016.91;4892140;28;50466;-71
2023/02/25 12:23:10;;;;;;;;;6.75;6.75;;;;;9.37;67.10;100990.22;4891744;29;49844;-67
2023/02/25 12:25:51;;;;;;;;;3.00;1.00;;;;;9.49;68.04;101003.69;4893832;29;49720;-63
2023/02/25 12:28:25;;;;;;;;;7.00;3.00;;;;;9.74;67.95;101019.25;4894054;28;49507;-67
2023/02/25 12:31:28;;;;;;;;;107.67;92.33;;;;;9.65;63.81;101005.00;4893835;29;51319;-65
2023/02/25 12:34:08;;;;;;;;;7.75;4.50;;;;;9.60;65.07;101006.59;4893802;29;49947;-66
2023/02/25 12:36:52;;;;;;;;;2.50;2.50;;;;;9.78;65.43;101007.13;4893833;29;49838;-63
2023/02/25 12:39:45;;;;;;;;;65.67;53.67;;;;;9.83;65.51;101018.63;4892070;29;49875;-61
2023/02/25 12:42:33;;;;;;;;;1.75;1.75;;;;;9.86;66.41;101005.63;4893387;29;49646;-61
2023/02/25 12:45:32;;;;;;;;;10.50;10.50;;;;;9.89;67.64;101017.91;4893556;28;49780;-62
2023/02/25 12:48:28;;;;;;;;;3.50;3.50;;;;;9.75;67.85;101015.81;4893733;28;49910;-62
2023/02/25 12:51:12;;;;;;;;;4.00;1.00;;;;;9.63;66.13;101009.31;4891134;28;49824;-64
2023/02/25 12:53:59;;;;;;;;;1.00;0.50;;;;;9.58;67.27;101016.16;4896302;29;50234;-67
2023/02/25 12:56:52;;;;;;;;;0.75;0.75;;;;;9.22;67.42;100951.38;4896714;28;49671;-73
2023/02/25 12:59:40;;;;;;;;;3.00;1.00;;;;;9.39;68.24;101009.50;4896928;28;49632;-69
2023/02/25 13:02:25;;;;;;;;;2.00;2.00;;;;;9.22;68.57;100997.63;4896957;28;49744;-69
2023/02/25 13:05:18;;;;;;;;;0.75;0.75;;;;;8.99;67.35;100960.28;4896808;28;50820;-66
2023/02/25 13:07:47;;;;;;;;;2.75;2.00;;;;;9.20;67.58;101002.81;4896483;28;49692;-67
2023/02/25 13:10:40;;;;;;;;;1.75;1.75;;;;;9.22;70.00;101000.25;4897036;28;49782;-65
2023/02/25 13:13:29;;;;;;;;;3.00;1.00;;;;;9.22;68.57;101006.38;4896856;28;49983;-68
2023/02/25 13:16:13;;;;;;;;;1.00;1.00;;;;;9.27;66.21;100983.84;4896585;28;50828;-67
2023/02/25 13:19:02;;;;;;;;;1.75;1.75;;;;;9.01;65.42;100929.78;4896655;28;49739;-69
2023/02/25 13:21:37;;;;;;;;;1.00;1.00;;;;;9.25;67.05;100948.81;4896251;28;49980;-71
2023/02/25 13:24:08;;;;;;;;;3.00;1.00;;;;;9.60;63.75;100989.16;4898901;29;49680;-69
2023/02/25 13:26:56;;;;;;;;;3.00;1.25;;;;;9.12;63.09;100868.13;4898504;28;50267;-76
2023/02/25 13:29:53;;;;;;;;;1.00;1.00;;;;;9.90;62.26;100968.13;4894327;28;49948;-78
2023/02/25 13:32:34;;;;;;;;;0.50;0.50;;;;;9.66;62.10;100921.19;4905329;28;49637;-79
2023/02/25 13:35:20;;;;;;;;;1.00;1.00;;;;;9.68;62.36;100937.81;4895995;28;50027;-69
2023/02/25 13:38:06;;;;;;;;;2.00;1.25;;;;;9.69;63.59;100965.81;4895092;28;50940;-70
2023/02/25 13:40:57;;;;;;;;;1.50;1.50;;;;;9.71;64.10;100977.22;4878212;29;49703;-72
2023/02/25 13:43:31;;;;;;;;;1.50;1.00;;;;;9.72;66.16;100975.50;4895812;28;49896;-68
2023/02/25 13:46:25;;;;;;;;;4.25;2.25;;;;;9.64;69.47;100998.84;4894489;28;49966;-71
2023/02/25 13:49:11;;;;;;;;;2.75;1.75;;;;;9.53;70.69;100976.69;4895905;28;49989;-71
2023/02/25 13:51:59;;;;;;;;;3.50;2.75;;;;;9.60;72.19;100967.28;4890166;28;49784;-72
2023/02/25 13:54:47;;;;;;;;;1.00;1.00;;;;;8.92;72.95;100851.84;4896888;28;50246;-71
2023/02/25 13:58:00;;;;;;;;;1.50;1.25;;;;;9.72;72.36;100981.63;4891223;28;49789;-68
2023/02/25 14:00:53;;;;;;;;;2.00;1.00;;;;;9.79;72.30;100997.53;4895202;28;49853;-68
2023/02/25 14:03:38;;;;;;;;;2.00;2.00;;;;;9.79;72.83;100990.56;4894020;28;49977;-69
2023/02/25 14:06:21;;;;;;;;;15.00;10.75;;;;;9.83;73.96;100986.25;4895932;28;49939;-66
2023/02/25 14:09:06;;;;;;;;;5.50;5.50;;;;;9.94;73.95;100987.44;4896084;28;49876;-68
2023/02/25 14:12:29;;;;;;;;;9.50;8.00;;;;;9.77;71.11;100999.22;4895245;28;49995;-72
2023/02/25 14:15:06;;;;;;;;;2.00;2.00;;;;;9.59;69.08;100990.00;4839426;29;49707;-64
2023/02/25 14:17:50;;;;;;;;;3.00;1.00;;;;;9.63;71.02;100986.59;4820497;29;50153;-66
2023/02/25 14:20:38;;;;;;;;;2.00;1.00;;;;;9.72;72.02;100996.47;4870340;28;49901;-66
2023/02/25 14:23:13;;;;;;;;;3.25;2.75;;;;;9.77;70.76;100980.88;4875658;29;50813;-63
2023/02/25 14:25:41;;;;;;;;;2.75;2.25;;;;;10.03;70.51;100990.31;4885677;28;49983;-64
2023/02/25 14:28:49;;;;;;;;;1.50;1.50;;;;;9.92;68.59;100997.91;4882651;28;49616;-64
2023/02/25 14:31:42;;;;;;;;;8.25;8.00;;;;;9.79;68.77;100976.56;4887607;29;49690;-70
2023/02/25 14:34:31;;;;;;;;;2.25;1.00;;;;;9.65;69.80;100968.28;4880768;29;50810;-68
2023/02/25 14:37:30;;;;;;;;;2.00;2.00;;;;;10.01;70.22;100995.53;4883702;29;50085;-68
2023/02/25 14:40:14;;;;;;;;;4.25;4.25;;;;;10.12;69.61;101001.03;4881343;28;49697;-68
2023/02/25 14:42:42;;;;;;;;;4.00;2.25;;;;;10.09;68.79;101002.72;4890215;28;49867;-70
2023/02/25 14:45:07;;;;;;;;;2.25;1.00;;;;;9.99;67.61;101005.09;4895297;28;50471;-70
2023/02/25 14:47:41;;;;;;;;;4.00;2.00;;;;;9.95;68.92;101010.22;4894642;28;49970;-70
2023/02/25 14:50:09;;;;;;;;;3.00;1.75;;;;;9.95;69.56;101007.59;4894932;28;49582;-69
2023/02/25 14:53:08;;;;;;;;;2.50;2.50;;;;;9.91;71.04;101021.47;4894361;28;49974;-72
2023/02/25 14:55:49;;;;;;;;;1.50;1.50;;;;;9.90;72.79;101011.81;4895548;29;50758;-70
2023/02/25 14:58:35;;;;;;;;;4.50;2.00;;;;;9.83;74.99;101013.38;4912529;28;49308;-70
2023/02/25 15:01:19;;;;;;;;;3.00;3.00;;;;;9.60;76.49;100972.53;4905067;28;49759;-70
2023/02/25 15:04:04;;;;;;;;;0.00;0.00;;;;;9.82;76.70;101013.34;4894889;28;49992;-69
2023/02/25 15:06:55;;;;;;;;;4.25;3.00;;;;;9.48;76.41;101001.91;4893924;28;51024;-70
2023/02/25 15:09:43;;;;;;;;;1.25;1.25;;;;;9.58;76.12;101005.69;4894875;29;49939;-69
2023/02/25 15:12:33;;;;;;;;;2.00;2.00;;;;;9.63;77.45;101012.81;4894369;29;50263;-69
2023/02/25 15:15:17;;;;;;;;;2.50;2.00;;;;;9.78;77.92;101011.50;4893520;28;50279;-69
2023/02/25 15:18:04;;;;;;;;;2.00;2.00;;;;;9.54;75.34;100947.03;4908275;28;50144;-69
2023/02/25 15:20:37;;;;;;;;;2.25;2.25;;;;;9.72;74.75;100965.00;4904915;28;49649;-69
2023/02/25 15:23:22;;;;;;;;;4.00;2.25;;;;;9.32;72.87;100911.47;4883157;29;49884;-69
2023/02/25 15:26:11;;;;;;;;;3.25;3.00;;;;;8.92;71.21;100850.97;4909283;28;50029;-69
2023/02/25 15:29:01;;;;;;;;;2.00;2.00;;;;;9.34;70.70;100950.81;4889322;28;51796;-69
2023/02/25 15:31:32;;;;;;;;;4.50;2.00;;;;;9.28;70.94;100929.72;4893574;28;49759;-70
2023/02/25 15:34:19;;;;;;;;;1.75;1.75;;;;;9.66;71.43;101006.78;4894642;28;49962;-69
2023/02/25 15:36:48;;;;;;;;;2.00;2.00;;;;;8.33;72.30;100775.06;4894263;28;50000;-69
2023/02/25 15:39:40;;;;;;;;;3.50;2.50;;;;;9.65;73.06;101024.25;4890493;28;50564;-69
2023/02/25 15:42:10;;;;;;;;;4.25;4.25;;;;;9.12;72.89;100931.88;4894133;28;49745;-70
2023/02/25 15:44:41;;;;;;;;;0.50;0.50;;;;;9.23;73.53;100942.66;4901322;28;49949;-69
2023/02/25 15:47:10;;;;;;;;;2.50;1.00;;;;;9.51;74.02;100998.47;4877437;29;49833;-69
2023/02/25 15:49:37;;;;;;;;;3.50;2.00;;;;;9.03;74.78;100933.34;4893439;28;50349;-70
2023/02/25 15:52:05;;;;;;;;;3.00;3.00;;;;;9.52;74.96;101013.34;4893266;28;49846;-71
2023/02/25 15:54:31;;;;;;;;;1.50;1.50;;;;;9.49;71.99;101003.69;4899418;28;49733;-73
2023/02/25 15:57:20;;;;;;;;;1.00;1.00;;;;;8.64;70.13;100906.84;4898459;28;50116;-70
2023/02/25 15:59:51;;;;;;;;;2.50;2.50;;;;;8.82;70.02;100917.88;4891699;28;50246;-70
2023/02/25 16:02:28;;;;;;;;;1.25;1.25;;;;;9.31;69.65;100992.66;4899540;29;49915;-70
2023/02/25 16:05:01;;;;;;;;;2.00;2.00;;;;;9.33;68.78;101004.94;4896367;28;49771;-69
2023/02/25 16:07:33;;;;;;;;;2.00;2.00;;;;;9.22;68.23;101024.72;4903011;28;49350;-70
2023/02/25 16:10:07;;;;;;;;;2.00;2.00;;;;;8.64;68.48;100880.66;4896891;28;51030;-71
2023/02/25 16:12:33;;;;;;;;;3.00;1.00;;;;;9.10;69.29;100951.91;4906111;28;49764;-70
2023/02/25 16:15:00;;;;;;;;;5.50;2.25;;;;;9.15;67.89;100949.41;4908937;28;49561;-70
2023/02/25 16:17:31;;;;;;;;;6.50;6.25;;;;;9.13;69.83;100951.09;4901436;28;49980;-71
2023/02/25 16:20:08;;;;;;;;;2.50;2.50;;;;;8.29;75.94;100808.06;4895921;28;49735;-76
2023/02/25 16:22:34;;;;;;;;;3.00;2.00;;;;;8.64;79.70;100910.34;4908308;28;49344;-69
2023/02/25 16:25:00;;;;;;;;;1.50;1.50;;;;;9.17;83.23;101003.63;4904115;28;49611;-69
2023/02/25 16:27:55;;;;;;;;;2.00;2.00;;;;;8.39;86.23;100903.44;4911611;29;49449;-71
2023/02/25 16:30:29;;;;;;;;;2.00;2.00;;;;;8.23;87.68;100895.94;4905314;29;49787;-80
2023/02/25 16:33:17;;;;;;;;;2.75;1.50;;;;;8.18;88.98;100881.81;4900952;28;49737;-69
2023/02/25 16:35:58;;;;;;;;;5.50;5.50;;;;;7.25;90.11;100735.03;4900090;28;49922;-69
2023/02/25 16:38:38;;;;;;;;;2.00;2.00;;;;;8.94;88.54;101049.16;4900045;29;49999;-70
2023/02/25 16:41:04;;;;;;;;;2.50;2.50;;;;;8.09;87.02;100924.22;4897993;28;50035;-70
2023/02/25 16:43:35;;;;;;;;;4.25;4.25;;;;;8.40;88.09;100991.56;4899666;28;49766;-70
2023/02/25 16:46:06;;;;;;;;;5.00;5.00;;;;;8.44;88.79;100997.78;4906796;29;49704;-69
2023/02/25 16:48:32;;;;;;;;;3.00;2.00;;;;;8.71;88.66;101055.38;4911727;28;49508;-73
2023/02/25 16:51:27;;;;;;;;;2.50;2.50;;;;;7.88;89.19;100919.16;4908633;28;49564;-69
2023/02/25 16:54:02;;;;;;;;;8.00;2.75;;;;;7.96;88.97;100949.06;4890404;29;50676;-69
2023/02/25 16:56:30;;;;;;;;;2.75;2.00;;;;;8.09;90.50;100980.84;4907665;29;49294;-70
2023/02/25 16:59:03;;;;;;;;;2.75;2.00;;;;;7.94;90.49;100970.78;4901655;29;50729;-69
2023/02/25 17:01:30;;;;;;;;;8.00;5.75;;;;;8.43;91.33;101096.31;4894740;28;49932;-70
2023/02/25 17:04:01;;;;;;;;;5.50;3.50;;;;;7.54;92.02;100951.09;4897798;28;49803;-69
2023/02/25 17:06:27;;;;;;;;;6.25;6.00;;;;;7.84;92.04;100966.97;4893693;28;49809;-70
2023/02/25 17:08:52;;;;;;;;;6.50;5.50;;;;;8.04;93.81;101002.53;4896355;28;49753;-69
2023/02/25 17:11:22;;;;;;;;;4.50;2.00;;;;;8.39;93.91;101090.91;4900966;28;49986;-69
2023/02/25 17:13:50;;;;;;;;;5.00;2.25;;;;;8.29;94.22;101056.53;4893831;28;49721;-71
2023/02/25 17:16:28;;;;;;;;;3.00;3.00;;;;;8.15;94.55;101068.25;4898211;29;49634;-69
2023/02/25 17:18:57;;;;;;;;;3.00;3.00;;;;;7.78;93.88;100987.63;4901057;29;49693;-69
2023/02/25 17:21:45;;;;;;;;;6.50;5.00;;;;;7.16;93.94;100898.34;4893727;28;51034;-69
2023/02/25 17:24:15;;;;;;;;;3.50;3.50;;;;;8.17;94.18;101066.59;4894044;28;49736;-69
2023/02/25 17:26:43;;;;;;;;;4.50;2.75;;;;;7.86;94.44;101021.91;4892431;28;49804;-72
2023/02/25 17:29:12;;;;;;;;;4.00;4.00;;;;;6.84;95.91;100889.31;4891341;28;49797;-70
2023/02/25 17:31:46;;;;;;;;;7.00;3.00;;;;;6.91;95.77;100923.47;4892146;28;49802;-69
2023/02/25 17:34:28;;;;;;;;;4.00;3.00;;;;;6.78;97.51;100901.25;4871208;29;49885;-71
2023/02/25 17:36:57;;;;;;;;;2.00;2.00;;;;;7.73;99.18;101044.09;4894842;28;50048;-71
2023/02/25 17:39:23;;;;;;;;;0.50;0.00;;;;;7.34;99.26;100979.09;4896447;28;49792;-70
2023/02/25 17:41:49;;;;;;;;;2.75;2.00;;;;;7.90;99.18;101094.34;4895148;28;49867;-70
2023/02/25 17:44:43;;;;;;;;;1.75;1.00;;;;;8.11;98.70;101109.94;4895592;28;49933;-70
2023/02/25 17:47:12;;;;;;;;;5.50;3.50;;;;;8.12;98.88;101114.34;4890773;28;49657;-70
2023/02/25 17:49:38;;;;;;;;;3.00;1.25;;;;;6.73;97.82;100898.44;4896288;28;50165;-70
2023/02/25 17:52:15;;;;;;;;;3.00;3.00;;;;;6.80;98.60;100962.22;4895303;28;50007;-70
2023/02/25 17:54:50;;;;;;;;;4.50;2.50;;;;;6.91;98.83;100954.78;4896130;28;50295;-71
2023/02/25 17:57:21;;;;;;;;;3.00;2.00;;;;;7.45;98.85;101053.50;4896158;28;49984;-70
2023/02/25 18:00:12;;;;;;;;;9.00;4.50;;;;;7.67;98.75;101096.13;4896508;28;50146;-69
2023/02/25 18:02:40;;;;;;;;;6.00;5.00;;;;;7.84;98.31;101128.13;4895635;28;50854;-71
2023/02/25 18:05:12;;;;;;;;;4.00;3.00;;;;;7.41;97.95;101072.50;4895886;28;49945;-70
2023/02/25 18:07:41;;;;;;;;;2.75;2.75;;;;;7.75;98.55;101133.88;4895794;29;50043;-75
2023/02/25 18:10:22;;;;;;;;;9.00;5.50;;;;;7.70;97.48;101135.41;4890461;29;49871;-70
2023/02/25 18:12:48;;;;;;;;;7.25;6.00;;;;;6.19;96.45;100898.06;4878801;29;52493;-69
2023/02/25 18:15:20;;;;;;;;;2.75;2.00;;;;;6.83;97.39;101012.78;4895840;28;49784;-69
2023/02/25 18:18:06;;;;;;;;;6.50;4.25;;;;;7.59;97.58;101135.00;4896017;28;49977;-70
2023/02/25 18:20:40;;;;;;;;;3.00;3.00;;;;;7.58;97.58;101137.56;4895943;28;49789;-70
2023/02/25 18:23:20;;;;;;;;;5.00;4.50;;;;;7.56;97.24;101158.41;4895171;29;49973;-70
2023/02/25 18:26:08;;;;;;;;;6.00;3.00;;;;;7.30;97.95;101115.59;4896347;28;49747;-70
2023/02/25 18:28:33;;;;;;;;;5.75;5.75;;;;;7.45;97.56;101149.28;4898347;28;49796;-67
2023/02/25 18:30:59;;;;;;;;;6.75;6.75;;;;;7.03;97.59;101096.22;4897461;28;49941;-73
2023/02/25 18:33:24;;;;;;;;;10.50;8.25;;;;;7.15;100.00;101122.84;4896509;28;50294;-68
2023/02/25 18:35:49;;;;;;;;;8.25;7.75;;;;;6.81;100.00;101065.75;4902241;28;51227;-68
2023/02/25 18:38:18;;;;;;;;;10.00;8.00;;;;;7.39;100.00;101170.81;4908126;28;49813;-73
2023/02/25 18:40:44;;;;;;;;;8.25;6.50;;;;;7.20;100.00;101126.50;4895281;28;49895;-74
2023/02/25 18:43:16;;;;;;;;;9.50;8.50;;;;;7.31;100.00;101126.94;4895097;28;49884;-72
2023/02/25 18:45:42;;;;;;;;;7.00;6.50;;;;;7.36;100.00;101147.19;4895110;29;49967;-66
2023/02/25 18:48:09;;;;;;;;;7.50;6.50;;;;;7.36;100.00;101160.25;4894279;28;49586;-69
2023/02/25 18:50:36;;;;;;;;;7.50;6.25;;;;;7.28;100.00;101151.19;4895390;28;49966;-81
2023/02/25 18:53:01;;;;;;;;;8.00;8.00;;;;;7.24;100.00;101146.69;4894338;28;50177;-71
2023/02/25 18:55:29;;;;;;;;;9.25;5.00;;;;;6.82;100.00;101081.47;4895507;28;49959;-72
2023/02/25 18:57:55;;;;;;;;;11.50;9.00;;;;;7.55;100.00;101190.59;4895049;28;49843;-74